sensor_id;sensor_type;location;lat;lon;timestamp;temperature;humidity
22607;DHT22;11470;20.968;105.834;2023-07-09T00:01:42;27.60;99.90
22607;DHT22;11470;20.968;105.834;2023-07-09T00:06:47;27.70;99.90
22607;DHT22;11470;20.968;105.834;2023-07-09T00:11:52;27.70;99.90
22607;DHT22;11470;20.968;105.834;2023-07-09T00:16:57;27.80;99.90
22607;DHT22;11470;20.968;105.834;2023-07-09T00:22:02;27.90;99.90
22607;DHT22;11470;20.968;105.834;2023-07-09T00:27:08;28.10;99.90
22607;DHT22;11470;20.968;105.834;2023-07-09T00:32:14;28.20;99.90
22607;DHT22;11470;20.968;105.834;2023-07-09T00:37:20;28.60;99.90
22607;DHT22;11470;20.968;105.834;2023-07-09T00:42:25;29.30;99.90
22607;DHT22;11470;20.968;105.834;2023-07-09T00:53:17;30.60;99.90
22607;DHT22;11470;20.968;105.834;2023-07-09T00:58:22;31.00;99.90
22607;DHT22;11470;20.968;105.834;2023-07-09T01:03:35;31.10;99.90
22607;DHT22;11470;20.968;105.834;2023-07-09T01:08:41;31.50;99.90
22607;DHT22;11470;20.968;105.834;2023-07-09T01:14:21;31.90;99.90
22607;DHT22;11470;20.968;105.834;2023-07-09T01:19:27;32.30;99.90
22607;DHT22;11470;20.968;105.834;2023-07-09T01:24:50;32.40;99.90
22607;DHT22;11470;20.968;105.834;2023-07-09T01:29:55;32.50;99.90
22607;DHT22;11470;20.968;105.834;2023-07-09T01:35:02;33.00;99.90
22607;DHT22;11470;20.968;105.834;2023-07-09T01:40:10;33.30;99.90
22607;DHT22;11470;20.968;105.834;2023-07-09T01:45:33;33.80;99.90
22607;DHT22;11470;20.968;105.834;2023-07-09T01:50:38;34.10;99.90
22607;DHT22;11470;20.968;105.834;2023-07-09T01:55:47;34.20;99.90
22607;DHT22;11470;20.968;105.834;2023-07-09T02:00:51;34.20;99.90
22607;DHT22;11470;20.968;105.834;2023-07-09T02:05:57;34.30;99.90
22607;DHT22;11470;20.968;105.834;2023-07-09T02:11:04;34.40;99.90
22607;DHT22;11470;20.968;105.834;2023-07-09T02:16:08;34.30;99.90
22607;DHT22;11470;20.968;105.834;2023-07-09T02:21:13;34.60;99.90
22607;DHT22;11470;20.968;105.834;2023-07-09T02:26:17;34.90;99.90
22607;DHT22;11470;20.968;105.834;2023-07-09T02:31:23;34.90;99.90
22607;DHT22;11470;20.968;105.834;2023-07-09T02:36:28;34.90;99.90
22607;DHT22;11470;20.968;105.834;2023-07-09T02:41:33;34.80;99.90
22607;DHT22;11470;20.968;105.834;2023-07-09T02:46:37;34.70;99.90
22607;DHT22;11470;20.968;105.834;2023-07-09T02:51:42;34.70;99.90
22607;DHT22;11470;20.968;105.834;2023-07-09T02:56:47;34.80;99.90
22607;DHT22;11470;20.968;105.834;2023-07-09T03:01:53;34.90;99.90
22607;DHT22;11470;20.968;105.834;2023-07-09T03:06:57;34.70;99.90
22607;DHT22;11470;20.968;105.834;2023-07-09T03:12:04;35.10;99.90
22607;DHT22;11470;20.968;105.834;2023-07-09T03:17:08;35.20;99.90
22607;DHT22;11470;20.968;105.834;2023-07-09T03:22:13;35.40;99.90
22607;DHT22;11470;20.968;105.834;2023-07-09T03:27:17;35.30;99.90
22607;DHT22;11470;20.968;105.834;2023-07-09T03:32:22;35.10;99.90
22607;DHT22;11470;20.968;105.834;2023-07-09T03:37:26;35.00;99.90
22607;DHT22;11470;20.968;105.834;2023-07-09T03:42:32;35.20;99.90
22607;DHT22;11470;20.968;105.834;2023-07-09T03:47:36;35.60;99.90
22607;DHT22;11470;20.968;105.834;2023-07-09T03:52:41;35.70;99.90
22607;DHT22;11470;20.968;105.834;2023-07-09T03:57:45;35.80;99.90
22607;DHT22;11470;20.968;105.834;2023-07-09T04:02:50;36.00;99.90
22607;DHT22;11470;20.968;105.834;2023-07-09T04:07:55;36.30;99.90
22607;DHT22;11470;20.968;105.834;2023-07-09T04:13:00;36.30;99.90
22607;DHT22;11470;20.968;105.834;2023-07-09T04:18:04;35.90;99.90
22607;DHT22;11470;20.968;105.834;2023-07-09T04:23:10;35.70;99.90
22607;DHT22;11470;20.968;105.834;2023-07-09T04:28:15;35.40;99.90
22607;DHT22;11470;20.968;105.834;2023-07-09T04:33:20;35.40;99.90
22607;DHT22;11470;20.968;105.834;2023-07-09T04:38:25;35.50;99.90
22607;DHT22;11470;20.968;105.834;2023-07-09T04:43:30;35.60;99.90
22607;DHT22;11470;20.968;105.834;2023-07-09T04:48:35;35.60;99.90
22607;DHT22;11470;20.968;105.834;2023-07-09T04:53:40;35.30;99.90
22607;DHT22;11470;20.968;105.834;2023-07-09T04:58:45;35.70;99.90
22607;DHT22;11470;20.968;105.834;2023-07-09T05:03:52;36.10;99.90
22607;DHT22;11470;20.968;105.834;2023-07-09T05:08:56;37.50;99.90
22607;DHT22;11470;20.968;105.834;2023-07-09T05:14:02;38.70;99.60
22607;DHT22;11470;20.968;105.834;2023-07-09T05:19:09;38.00;99.60
22607;DHT22;11470;20.968;105.834;2023-07-09T05:24:14;38.10;99.40
22607;DHT22;11470;20.968;105.834;2023-07-09T05:29:18;39.00;98.10
22607;DHT22;11470;20.968;105.834;2023-07-09T05:34:25;39.20;96.30
22607;DHT22;11470;20.968;105.834;2023-07-09T05:39:29;40.60;94.70
22607;DHT22;11470;20.968;105.834;2023-07-09T05:44:37;40.70;91.70
22607;DHT22;11470;20.968;105.834;2023-07-09T05:49:41;39.30;94.00
22607;DHT22;11470;20.968;105.834;2023-07-09T05:54:48;40.50;92.90
22607;DHT22;11470;20.968;105.834;2023-07-09T05:59:52;42.00;88.40
22607;DHT22;11470;20.968;105.834;2023-07-09T06:04:57;40.80;90.10
22607;DHT22;11470;20.968;105.834;2023-07-09T06:10:01;38.80;93.30
22607;DHT22;11470;20.968;105.834;2023-07-09T06:15:10;36.60;98.30
22607;DHT22;11470;20.968;105.834;2023-07-09T06:20:15;36.40;99.90
22607;DHT22;11470;20.968;105.834;2023-07-09T06:25:20;37.20;99.20
22607;DHT22;11470;20.968;105.834;2023-07-09T06:30:24;36.80;99.90
22607;DHT22;11470;20.968;105.834;2023-07-09T06:35:29;38.00;98.70
22607;DHT22;11470;20.968;105.834;2023-07-09T06:40:33;38.60;96.10
22607;DHT22;11470;20.968;105.834;2023-07-09T06:45:39;38.60;96.30
22607;DHT22;11470;20.968;105.834;2023-07-09T06:50:52;39.00;95.50
22607;DHT22;11470;20.968;105.834;2023-07-09T06:55:57;39.00;95.30
22607;DHT22;11470;20.968;105.834;2023-07-09T07:01:04;39.00;95.10
22607;DHT22;11470;20.968;105.834;2023-07-09T07:06:09;38.40;96.00
22607;DHT22;11470;20.968;105.834;2023-07-09T07:11:14;37.40;98.10
22607;DHT22;11470;20.968;105.834;2023-07-09T07:16:18;36.70;99.90
22607;DHT22;11470;20.968;105.834;2023-07-09T07:21:23;36.30;99.90
22607;DHT22;11470;20.968;105.834;2023-07-09T07:26:29;36.20;99.90
22607;DHT22;11470;20.968;105.834;2023-07-09T07:31:37;36.10;99.90
22607;DHT22;11470;20.968;105.834;2023-07-09T07:36:41;36.00;99.90
22607;DHT22;11470;20.968;105.834;2023-07-09T07:41:46;35.70;99.90
22607;DHT22;11470;20.968;105.834;2023-07-09T07:46:51;35.70;99.90
22607;DHT22;11470;20.968;105.834;2023-07-09T07:51:56;36.60;99.90
22607;DHT22;11470;20.968;105.834;2023-07-09T07:57:00;37.80;99.90
22607;DHT22;11470;20.968;105.834;2023-07-09T08:02:06;38.30;99.90
22607;DHT22;11470;20.968;105.834;2023-07-09T08:07:11;38.00;99.90
22607;DHT22;11470;20.968;105.834;2023-07-09T08:12:15;37.60;99.90
22607;DHT22;11470;20.968;105.834;2023-07-09T08:17:19;37.70;99.90
22607;DHT22;11470;20.968;105.834;2023-07-09T08:22:25;38.70;99.90
22607;DHT22;11470;20.968;105.834;2023-07-09T08:27:48;39.30;98.40
22607;DHT22;11470;20.968;105.834;2023-07-09T08:33:11;38.80;99.40
22607;DHT22;11470;20.968;105.834;2023-07-09T08:38:15;38.90;99.20
22607;DHT22;11470;20.968;105.834;2023-07-09T08:43:58;39.10;98.60
22607;DHT22;11470;20.968;105.834;2023-07-09T08:49:11;39.00;98.00
22607;DHT22;11470;20.968;105.834;2023-07-09T08:54:25;38.20;98.80
22607;DHT22;11470;20.968;105.834;2023-07-09T08:59:30;37.80;99.70
22607;DHT22;11470;20.968;105.834;2023-07-09T09:04:36;37.40;99.90
22607;DHT22;11470;20.968;105.834;2023-07-09T09:10:01;37.10;99.90
22607;DHT22;11470;20.968;105.834;2023-07-09T09:15:25;36.80;99.90
22607;DHT22;11470;20.968;105.834;2023-07-09T09:20:30;36.30;99.90
22607;DHT22;11470;20.968;105.834;2023-07-09T09:25:55;36.30;99.90
22607;DHT22;11470;20.968;105.834;2023-07-09T09:31:14;36.40;99.90
22607;DHT22;11470;20.968;105.834;2023-07-09T09:36:24;36.50;99.90
22607;DHT22;11470;20.968;105.834;2023-07-09T09:41:47;36.30;99.90
22607;DHT22;11470;20.968;105.834;2023-07-09T09:46:52;35.90;99.90
22607;DHT22;11470;20.968;105.834;2023-07-09T09:52:02;35.60;99.90
22607;DHT22;11470;20.968;105.834;2023-07-09T09:57:22;35.50;99.90
22607;DHT22;11470;20.968;105.834;2023-07-09T10:02:28;35.40;99.90
22607;DHT22;11470;20.968;105.834;2023-07-09T10:07:38;35.10;99.90
22607;DHT22;11470;20.968;105.834;2023-07-09T10:12:49;35.00;99.90
22607;DHT22;11470;20.968;105.834;2023-07-09T10:17:57;34.90;99.90
22607;DHT22;11470;20.968;105.834;2023-07-09T10:23:11;34.60;99.90
22607;DHT22;11470;20.968;105.834;2023-07-09T10:28:27;34.30;99.90
22607;DHT22;11470;20.968;105.834;2023-07-09T10:39:00;33.70;99.90
22607;DHT22;11470;20.968;105.834;2023-07-09T10:49:22;33.50;99.90
22607;DHT22;11470;20.968;105.834;2023-07-09T10:54:35;33.30;99.90
22607;DHT22;11470;20.968;105.834;2023-07-09T10:59:42;33.20;99.90
22607;DHT22;11470;20.968;105.834;2023-07-09T11:04:50;33.10;99.90
22607;DHT22;11470;20.968;105.834;2023-07-09T11:09:57;32.80;99.90
22607;DHT22;11470;20.968;105.834;2023-07-09T11:15:06;32.60;99.90
22607;DHT22;11470;20.968;105.834;2023-07-09T11:20:20;32.40;99.90
22607;DHT22;11470;20.968;105.834;2023-07-09T11:25:28;32.30;99.90
22607;DHT22;11470;20.968;105.834;2023-07-09T11:30:33;32.20;99.90
22607;DHT22;11470;20.968;105.834;2023-07-09T11:35:50;32.00;99.90
22607;DHT22;11470;20.968;105.834;2023-07-09T11:40:56;31.90;99.90
22607;DHT22;11470;20.968;105.834;2023-07-09T11:46:18;31.70;99.90
22607;DHT22;11470;20.968;105.834;2023-07-09T11:51:46;31.50;99.90
22607;DHT22;11470;20.968;105.834;2023-07-09T11:56:58;31.50;99.90
22607;DHT22;11470;20.968;105.834;2023-07-09T12:02:05;31.40;99.90
22607;DHT22;11470;20.968;105.834;2023-07-09T12:07:12;31.30;99.90
22607;DHT22;11470;20.968;105.834;2023-07-09T12:12:22;31.20;99.90
22607;DHT22;11470;20.968;105.834;2023-07-09T12:17:27;31.10;99.90
22607;DHT22;11470;20.968;105.834;2023-07-09T12:22:34;31.10;99.90
22607;DHT22;11470;20.968;105.834;2023-07-09T12:33:24;31.00;99.90
22607;DHT22;11470;20.968;105.834;2023-07-09T12:38:41;31.00;99.90
22607;DHT22;11470;20.968;105.834;2023-07-09T12:43:46;31.00;99.90
22607;DHT22;11470;20.968;105.834;2023-07-09T12:48:54;30.90;99.90
22607;DHT22;11470;20.968;105.834;2023-07-09T12:54:00;31.00;99.90
22607;DHT22;11470;20.968;105.834;2023-07-09T12:59:26;30.90;99.90
22607;DHT22;11470;20.968;105.834;2023-07-09T13:04:38;31.10;99.90
22607;DHT22;11470;20.968;105.834;2023-07-09T13:09:47;29.80;99.90
22607;DHT22;11470;20.968;105.834;2023-07-09T13:14:56;28.40;99.90
22607;DHT22;11470;20.968;105.834;2023-07-09T13:20:02;27.60;99.90
22607;DHT22;11470;20.968;105.834;2023-07-09T13:25:08;27.00;99.90
22607;DHT22;11470;20.968;105.834;2023-07-09T13:30:16;25.40;99.90
22607;DHT22;11470;20.968;105.834;2023-07-09T13:35:25;24.90;99.90
22607;DHT22;11470;20.968;105.834;2023-07-09T13:40:29;24.80;99.90
22607;DHT22;11470;20.968;105.834;2023-07-09T13:45:37;24.60;99.90
22607;DHT22;11470;20.968;105.834;2023-07-09T13:50:43;24.70;99.90
22607;DHT22;11470;20.968;105.834;2023-07-09T13:55:48;24.60;99.90
22607;DHT22;11470;20.968;105.834;2023-07-09T14:00:58;25.00;99.90
22607;DHT22;11470;20.968;105.834;2023-07-09T14:06:12;25.60;99.90
22607;DHT22;11470;20.968;105.834;2023-07-09T14:11:17;25.80;99.90
22607;DHT22;11470;20.968;105.834;2023-07-09T14:16:22;26.10;99.90
22607;DHT22;11470;20.968;105.834;2023-07-09T14:21:27;26.70;99.90
22607;DHT22;11470;20.968;105.834;2023-07-09T14:26:32;27.00;99.90
22607;DHT22;11470;20.968;105.834;2023-07-09T14:31:37;27.30;99.90
22607;DHT22;11470;20.968;105.834;2023-07-09T14:36:41;27.50;99.90
22607;DHT22;11470;20.968;105.834;2023-07-09T14:41:47;27.10;99.90
22607;DHT22;11470;20.968;105.834;2023-07-09T14:46:52;27.30;99.90
22607;DHT22;11470;20.968;105.834;2023-07-09T14:51:58;27.80;99.90
22607;DHT22;11470;20.968;105.834;2023-07-09T14:57:03;27.90;99.90
22607;DHT22;11470;20.968;105.834;2023-07-09T15:02:51;27.90;99.90
22607;DHT22;11470;20.968;105.834;2023-07-09T15:07:39;27.90;99.90
22607;DHT22;11470;20.968;105.834;2023-07-09T15:12:44;28.30;99.90
22607;DHT22;11470;20.968;105.834;2023-07-09T15:17:49;28.90;99.90
22607;DHT22;11470;20.968;105.834;2023-07-09T15:22:55;28.80;99.90
22607;DHT22;11470;20.968;105.834;2023-07-09T15:28:00;28.70;99.90
22607;DHT22;11470;20.968;105.834;2023-07-09T15:33:08;28.50;99.90
22607;DHT22;11470;20.968;105.834;2023-07-09T15:43:24;28.40;99.90
22607;DHT22;11470;20.968;105.834;2023-07-09T15:48:35;28.30;99.90
22607;DHT22;11470;20.968;105.834;2023-07-09T15:53:41;28.20;99.90
22607;DHT22;11470;20.968;105.834;2023-07-09T15:58:48;28.40;99.90
22607;DHT22;11470;20.968;105.834;2023-07-09T16:03:59;28.40;99.90
22607;DHT22;11470;20.968;105.834;2023-07-09T16:09:04;28.50;99.90
22607;DHT22;11470;20.968;105.834;2023-07-09T16:14:17;28.70;99.90
22607;DHT22;11470;20.968;105.834;2023-07-09T16:19:24;28.70;99.90
22607;DHT22;11470;20.968;105.834;2023-07-09T16:24:30;28.90;99.90
22607;DHT22;11470;20.968;105.834;2023-07-09T16:29:35;28.80;99.90
22607;DHT22;11470;20.968;105.834;2023-07-09T16:34:43;29.00;99.90
22607;DHT22;11470;20.968;105.834;2023-07-09T16:39:47;28.80;99.90
22607;DHT22;11470;20.968;105.834;2023-07-09T16:44:52;28.90;99.90
22607;DHT22;11470;20.968;105.834;2023-07-09T16:49:58;29.00;99.90
22607;DHT22;11470;20.968;105.834;2023-07-09T16:55:25;28.80;99.90
22607;DHT22;11470;20.968;105.834;2023-07-09T17:00:31;28.60;99.90
22607;DHT22;11470;20.968;105.834;2023-07-09T17:05:38;28.30;99.90
22607;DHT22;11470;20.968;105.834;2023-07-09T17:10:43;28.10;99.90
22607;DHT22;11470;20.968;105.834;2023-07-09T17:15:49;28.00;99.90
22607;DHT22;11470;20.968;105.834;2023-07-09T17:20:54;27.90;99.90
22607;DHT22;11470;20.968;105.834;2023-07-09T17:25:59;28.00;99.90
22607;DHT22;11470;20.968;105.834;2023-07-09T17:31:04;28.00;99.90
22607;DHT22;11470;20.968;105.834;2023-07-09T17:36:12;28.30;99.90
22607;DHT22;11470;20.968;105.834;2023-07-09T17:41:17;28.30;99.90
22607;DHT22;11470;20.968;105.834;2023-07-09T17:46:22;28.30;99.90
22607;DHT22;11470;20.968;105.834;2023-07-09T17:51:27;28.40;99.90
22607;DHT22;11470;20.968;105.834;2023-07-09T17:56:31;28.30;99.90
22607;DHT22;11470;20.968;105.834;2023-07-09T18:01:36;28.30;99.90
22607;DHT22;11470;20.968;105.834;2023-07-09T18:06:41;28.20;99.90
22607;DHT22;11470;20.968;105.834;2023-07-09T18:11:52;27.90;99.90
22607;DHT22;11470;20.968;105.834;2023-07-09T18:16:57;28.00;99.90
22607;DHT22;11470;20.968;105.834;2023-07-09T18:22:03;27.90;99.90
22607;DHT22;11470;20.968;105.834;2023-07-09T18:27:14;27.70;99.90
22607;DHT22;11470;20.968;105.834;2023-07-09T18:32:20;27.80;99.90
22607;DHT22;11470;20.968;105.834;2023-07-09T18:37:27;27.90;99.90
22607;DHT22;11470;20.968;105.834;2023-07-09T18:42:31;27.80;99.90
22607;DHT22;11470;20.968;105.834;2023-07-09T18:47:36;28.10;99.90
22607;DHT22;11470;20.968;105.834;2023-07-09T18:52:41;28.20;99.90
22607;DHT22;11470;20.968;105.834;2023-07-09T18:57:46;28.40;99.90
22607;DHT22;11470;20.968;105.834;2023-07-09T19:02:52;28.40;99.90
22607;DHT22;11470;20.968;105.834;2023-07-09T19:07:59;28.30;99.90
22607;DHT22;11470;20.968;105.834;2023-07-09T19:13:07;28.10;99.90
22607;DHT22;11470;20.968;105.834;2023-07-09T19:23:26;27.80;99.90
22607;DHT22;11470;20.968;105.834;2023-07-09T19:28:31;28.00;99.90
22607;DHT22;11470;20.968;105.834;2023-07-09T19:33:37;27.80;99.90
22607;DHT22;11470;20.968;105.834;2023-07-09T19:38:42;27.70;99.90
22607;DHT22;11470;20.968;105.834;2023-07-09T19:43:46;27.70;99.90
22607;DHT22;11470;20.968;105.834;2023-07-09T19:48:51;27.60;99.90
22607;DHT22;11470;20.968;105.834;2023-07-09T19:53:55;27.60;99.90
22607;DHT22;11470;20.968;105.834;2023-07-09T19:58:59;27.80;99.90
22607;DHT22;11470;20.968;105.834;2023-07-09T20:04:04;27.70;99.90
22607;DHT22;11470;20.968;105.834;2023-07-09T20:09:12;27.70;99.90
22607;DHT22;11470;20.968;105.834;2023-07-09T20:14:21;27.60;99.90
22607;DHT22;11470;20.968;105.834;2023-07-09T20:19:26;27.50;99.90
22607;DHT22;11470;20.968;105.834;2023-07-09T20:24:30;27.30;99.90
22607;DHT22;11470;20.968;105.834;2023-07-09T20:29:34;27.30;99.90
22607;DHT22;11470;20.968;105.834;2023-07-09T20:34:39;27.20;99.90
22607;DHT22;11470;20.968;105.834;2023-07-09T20:39:43;27.20;99.90
22607;DHT22;11470;20.968;105.834;2023-07-09T20:44:48;27.10;99.90
22607;DHT22;11470;20.968;105.834;2023-07-09T20:49:57;27.10;99.90
22607;DHT22;11470;20.968;105.834;2023-07-09T20:55:15;27.10;99.90
22607;DHT22;11470;20.968;105.834;2023-07-09T21:00:20;27.00;99.90
22607;DHT22;11470;20.968;105.834;2023-07-09T21:05:24;27.10;99.90
22607;DHT22;11470;20.968;105.834;2023-07-09T21:10:29;27.10;99.90
22607;DHT22;11470;20.968;105.834;2023-07-09T21:15:35;27.00;99.90
22607;DHT22;11470;20.968;105.834;2023-07-09T21:20:40;27.00;99.90
22607;DHT22;11470;20.968;105.834;2023-07-09T21:25:45;26.90;99.90
22607;DHT22;11470;20.968;105.834;2023-07-09T21:30:49;26.90;99.90
22607;DHT22;11470;20.968;105.834;2023-07-09T21:35:54;26.90;99.90
22607;DHT22;11470;20.968;105.834;2023-07-09T21:41:02;26.80;99.90
22607;DHT22;11470;20.968;105.834;2023-07-09T21:46:09;26.80;99.90
22607;DHT22;11470;20.968;105.834;2023-07-09T21:51:20;26.90;99.90
22607;DHT22;11470;20.968;105.834;2023-07-09T21:56:25;26.90;99.90
22607;DHT22;11470;20.968;105.834;2023-07-09T22:01:30;26.80;99.90
22607;DHT22;11470;20.968;105.834;2023-07-09T22:06:34;26.80;99.90
22607;DHT22;11470;20.968;105.834;2023-07-09T22:11:39;26.80;99.90
22607;DHT22;11470;20.968;105.834;2023-07-09T22:16:51;26.80;99.90
22607;DHT22;11470;20.968;105.834;2023-07-09T22:21:56;26.80;99.90
22607;DHT22;11470;20.968;105.834;2023-07-09T22:27:00;26.90;99.90
22607;DHT22;11470;20.968;105.834;2023-07-09T22:32:07;26.90;99.90
22607;DHT22;11470;20.968;105.834;2023-07-09T22:37:17;26.90;99.90
22607;DHT22;11470;20.968;105.834;2023-07-09T22:42:22;26.90;99.90
22607;DHT22;11470;20.968;105.834;2023-07-09T22:47:27;26.90;99.90
22607;DHT22;11470;20.968;105.834;2023-07-09T22:52:32;27.00;99.90
22607;DHT22;11470;20.968;105.834;2023-07-09T22:57:36;27.10;99.90
22607;DHT22;11470;20.968;105.834;2023-07-09T23:02:40;27.10;99.90
22607;DHT22;11470;20.968;105.834;2023-07-09T23:07:47;27.30;99.90
22607;DHT22;11470;20.968;105.834;2023-07-09T23:13:10;27.40;99.90
22607;DHT22;11470;20.968;105.834;2023-07-09T23:18:16;27.40;99.90
22607;DHT22;11470;20.968;105.834;2023-07-09T23:23:21;27.40;99.90
22607;DHT22;11470;20.968;105.834;2023-07-09T23:28:28;27.40;99.90
22607;DHT22;11470;20.968;105.834;2023-07-09T23:33:33;27.40;99.90
22607;DHT22;11470;20.968;105.834;2023-07-09T23:38:40;27.50;99.90
22607;DHT22;11470;20.968;105.834;2023-07-09T23:43:45;27.70;99.90
22607;DHT22;11470;20.968;105.834;2023-07-09T23:48:49;27.70;99.90
22607;DHT22;11470;20.968;105.834;2023-07-09T23:53:59;27.80;99.90
22607;DHT22;11470;20.968;105.834;2023-07-09T23:59:03;27.90;99.90
